sensor_id;sensor_type;location;lat;lon;timestamp;P1;durP1;ratioP1;P2;durP2;ratioP2
47519;SDS011;33252;48.122;11.538;2023-04-25T00:02:02;2.67;;;1.23;;
47519;SDS011;33252;48.122;11.538;2023-04-25T00:04:28;3.53;;;1.60;;
47519;SDS011;33252;48.122;11.538;2023-04-25T00:06:54;4.85;;;1.83;;
47519;SDS011;33252;48.122;11.538;2023-04-25T00:09:21;3.38;;;1.70;;
47519;SDS011;33252;48.122;11.538;2023-04-25T00:11:47;4.47;;;1.30;;
47519;SDS011;33252;48.122;11.538;2023-04-25T00:14:13;2.65;;;1.52;;
47519;SDS011;33252;48.122;11.538;2023-04-25T00:16:39;2.50;;;1.42;;
47519;SDS011;33252;48.122;11.538;2023-04-25T00:19:06;5.35;;;1.75;;
47519;SDS011;33252;48.122;11.538;2023-04-25T00:21:32;3.63;;;1.13;;
47519;SDS011;33252;48.122;11.538;2023-04-25T00:23:58;1.65;;;1.02;;
47519;SDS011;33252;48.122;11.538;2023-04-25T00:26:25;3.25;;;1.30;;
47519;SDS011;33252;48.122;11.538;2023-04-25T00:28:50;3.03;;;1.60;;
47519;SDS011;33252;48.122;11.538;2023-04-25T00:31:16;3.00;;;1.20;;
47519;SDS011;33252;48.122;11.538;2023-04-25T00:33:42;3.92;;;1.55;;
47519;SDS011;33252;48.122;11.538;2023-04-25T00:36:07;3.55;;;1.58;;
47519;SDS011;33252;48.122;11.538;2023-04-25T00:38:33;5.65;;;1.60;;
47519;SDS011;33252;48.122;11.538;2023-04-25T00:40:59;1.73;;;1.00;;
47519;SDS011;33252;48.122;11.538;2023-04-25T00:43:26;1.77;;;1.20;;
47519;SDS011;33252;48.122;11.538;2023-04-25T00:45:52;3.15;;;1.17;;
47519;SDS011;33252;48.122;11.538;2023-04-25T00:48:18;2.90;;;1.23;;
47519;SDS011;33252;48.122;11.538;2023-04-25T00:50:48;2.88;;;1.35;;
47519;SDS011;33252;48.122;11.538;2023-04-25T00:53:22;3.05;;;1.60;;
47519;SDS011;33252;48.122;11.538;2023-04-25T00:55:49;3.78;;;1.50;;
47519;SDS011;33252;48.122;11.538;2023-04-25T00:58:16;3.35;;;1.48;;
47519;SDS011;33252;48.122;11.538;2023-04-25T01:00:42;3.63;;;1.63;;
47519;SDS011;33252;48.122;11.538;2023-04-25T01:03:10;3.20;;;1.17;;
47519;SDS011;33252;48.122;11.538;2023-04-25T01:05:36;1.67;;;1.58;;
47519;SDS011;33252;48.122;11.538;2023-04-25T01:08:02;3.55;;;1.85;;
47519;SDS011;33252;48.122;11.538;2023-04-25T01:10:28;1.65;;;1.30;;
47519;SDS011;33252;48.122;11.538;2023-04-25T01:12:54;2.95;;;1.25;;
47519;SDS011;33252;48.122;11.538;2023-04-25T01:15:19;3.53;;;1.40;;
47519;SDS011;33252;48.122;11.538;2023-04-25T01:17:45;2.42;;;1.30;;
47519;SDS011;33252;48.122;11.538;2023-04-25T01:20:11;2.95;;;2.72;;
47519;SDS011;33252;48.122;11.538;2023-04-25T01:22:38;2.78;;;1.40;;
47519;SDS011;33252;48.122;11.538;2023-04-25T01:25:04;2.30;;;1.35;;
47519;SDS011;33252;48.122;11.538;2023-04-25T01:27:31;2.83;;;1.02;;
47519;SDS011;33252;48.122;11.538;2023-04-25T01:29:57;2.35;;;1.20;;
47519;SDS011;33252;48.122;11.538;2023-04-25T01:32:24;4.20;;;1.58;;
47519;SDS011;33252;48.122;11.538;2023-04-25T01:34:50;4.45;;;1.40;;
47519;SDS011;33252;48.122;11.538;2023-04-25T01:37:16;2.13;;;1.33;;
47519;SDS011;33252;48.122;11.538;2023-04-25T01:39:42;2.70;;;1.80;;
47519;SDS011;33252;48.122;11.538;2023-04-25T01:42:08;2.13;;;1.35;;
47519;SDS011;33252;48.122;11.538;2023-04-25T01:44:34;3.60;;;1.45;;
47519;SDS011;33252;48.122;11.538;2023-04-25T01:47:00;2.50;;;1.52;;
47519;SDS011;33252;48.122;11.538;2023-04-25T01:49:25;2.95;;;1.10;;
47519;SDS011;33252;48.122;11.538;2023-04-25T01:51:51;3.08;;;1.20;;
47519;SDS011;33252;48.122;11.538;2023-04-25T01:54:17;1.77;;;1.23;;
47519;SDS011;33252;48.122;11.538;2023-04-25T01:56:43;3.20;;;1.05;;
47519;SDS011;33252;48.122;11.538;2023-04-25T01:59:16;2.63;;;1.17;;
47519;SDS011;33252;48.122;11.538;2023-04-25T02:01:43;2.53;;;1.63;;
47519;SDS011;33252;48.122;11.538;2023-04-25T02:04:09;4.00;;;1.60;;
47519;SDS011;33252;48.122;11.538;2023-04-25T02:06:34;7.18;;;1.65;;
47519;SDS011;33252;48.122;11.538;2023-04-25T02:09:00;2.83;;;1.50;;
47519;SDS011;33252;48.122;11.538;2023-04-25T02:11:25;3.60;;;1.67;;
47519;SDS011;33252;48.122;11.538;2023-04-25T02:13:51;3.63;;;1.25;;
47519;SDS011;33252;48.122;11.538;2023-04-25T02:16:17;4.05;;;1.88;;
47519;SDS011;33252;48.122;11.538;2023-04-25T02:18:43;3.53;;;1.50;;
47519;SDS011;33252;48.122;11.538;2023-04-25T02:21:10;2.92;;;1.70;;
47519;SDS011;33252;48.122;11.538;2023-04-25T02:23:36;2.55;;;1.85;;
47519;SDS011;33252;48.122;11.538;2023-04-25T02:26:02;3.33;;;1.63;;
47519;SDS011;33252;48.122;11.538;2023-04-25T02:28:28;2.78;;;1.27;;
47519;SDS011;33252;48.122;11.538;2023-04-25T02:30:54;6.53;;;1.90;;
47519;SDS011;33252;48.122;11.538;2023-04-25T02:33:20;2.53;;;1.63;;
47519;SDS011;33252;48.122;11.538;2023-04-25T02:35:46;2.55;;;1.65;;
47519;SDS011;33252;48.122;11.538;2023-04-25T02:38:12;2.30;;;1.67;;
47519;SDS011;33252;48.122;11.538;2023-04-25T02:40:37;3.90;;;1.52;;
47519;SDS011;33252;48.122;11.538;2023-04-25T02:43:03;3.45;;;1.90;;
47519;SDS011;33252;48.122;11.538;2023-04-25T02:45:28;2.72;;;1.83;;
47519;SDS011;33252;48.122;11.538;2023-04-25T02:47:54;3.17;;;1.73;;
47519;SDS011;33252;48.122;11.538;2023-04-25T02:50:20;2.55;;;1.58;;
47519;SDS011;33252;48.122;11.538;2023-04-25T02:52:45;3.22;;;1.70;;
47519;SDS011;33252;48.122;11.538;2023-04-25T02:55:12;3.22;;;1.45;;
47519;SDS011;33252;48.122;11.538;2023-04-25T02:57:38;4.22;;;1.30;;
47519;SDS011;33252;48.122;11.538;2023-04-25T03:00:04;2.28;;;1.50;;
47519;SDS011;33252;48.122;11.538;2023-04-25T03:02:30;2.22;;;1.48;;
47519;SDS011;33252;48.122;11.538;2023-04-25T03:04:56;2.22;;;1.38;;
47519;SDS011;33252;48.122;11.538;2023-04-25T03:07:21;2.33;;;1.55;;
47519;SDS011;33252;48.122;11.538;2023-04-25T03:09:47;3.75;;;1.88;;
47519;SDS011;33252;48.122;11.538;2023-04-25T03:12:13;5.18;;;1.77;;
47519;SDS011;33252;48.122;11.538;2023-04-25T03:14:38;3.75;;;1.63;;
47519;SDS011;33252;48.122;11.538;2023-04-25T03:17:04;4.07;;;1.77;;
47519;SDS011;33252;48.122;11.538;2023-04-25T03:19:30;3.10;;;1.85;;
47519;SDS011;33252;48.122;11.538;2023-04-25T03:21:55;4.47;;;2.33;;
47519;SDS011;33252;48.122;11.538;2023-04-25T03:24:21;3.30;;;1.40;;
47519;SDS011;33252;48.122;11.538;2023-04-25T03:26:47;2.60;;;1.67;;
47519;SDS011;33252;48.122;11.538;2023-04-25T03:29:12;2.63;;;1.70;;
47519;SDS011;33252;48.122;11.538;2023-04-25T03:31:38;4.88;;;1.90;;
47519;SDS011;33252;48.122;11.538;2023-04-25T03:34:04;3.90;;;1.83;;
47519;SDS011;33252;48.122;11.538;2023-04-25T03:36:29;3.63;;;1.42;;
47519;SDS011;33252;48.122;11.538;2023-04-25T03:38:55;3.30;;;1.45;;
47519;SDS011;33252;48.122;11.538;2023-04-25T03:41:21;3.20;;;1.48;;
47519;SDS011;33252;48.122;11.538;2023-04-25T03:43:46;3.20;;;1.33;;
47519;SDS011;33252;48.122;11.538;2023-04-25T03:46:12;2.90;;;1.02;;
47519;SDS011;33252;48.122;11.538;2023-04-25T03:48:38;2.97;;;1.27;;
47519;SDS011;33252;48.122;11.538;2023-04-25T03:51:04;3.58;;;1.23;;
47519;SDS011;33252;48.122;11.538;2023-04-25T03:53:30;1.48;;;1.00;;
47519;SDS011;33252;48.122;11.538;2023-04-25T03:55:55;2.20;;;1.10;;
47519;SDS011;33252;48.122;11.538;2023-04-25T03:58:21;2.33;;;1.08;;
47519;SDS011;33252;48.122;11.538;2023-04-25T04:00:48;2.72;;;1.48;;
47519;SDS011;33252;48.122;11.538;2023-04-25T04:03:13;3.28;;;1.30;;
47519;SDS011;33252;48.122;11.538;2023-04-25T04:05:39;1.92;;;0.98;;
47519;SDS011;33252;48.122;11.538;2023-04-25T04:08:05;1.45;;;0.98;;
47519;SDS011;33252;48.122;11.538;2023-04-25T04:10:31;3.65;;;1.48;;
47519;SDS011;33252;48.122;11.538;2023-04-25T04:12:57;2.08;;;1.02;;
47519;SDS011;33252;48.122;11.538;2023-04-25T04:15:22;2.83;;;1.10;;
47519;SDS011;33252;48.122;11.538;2023-04-25T04:17:48;3.25;;;0.95;;
47519;SDS011;33252;48.122;11.538;2023-04-25T04:20:14;3.75;;;1.33;;
47519;SDS011;33252;48.122;11.538;2023-04-25T04:22:40;4.15;;;1.00;;
47519;SDS011;33252;48.122;11.538;2023-04-25T04:25:06;2.00;;;1.17;;
47519;SDS011;33252;48.122;11.538;2023-04-25T04:27:32;3.15;;;0.93;;
47519;SDS011;33252;48.122;11.538;2023-04-25T04:29:57;2.05;;;1.00;;
47519;SDS011;33252;48.122;11.538;2023-04-25T04:32:23;1.73;;;1.08;;
47519;SDS011;33252;48.122;11.538;2023-04-25T04:34:50;3.53;;;0.90;;
47519;SDS011;33252;48.122;11.538;2023-04-25T04:37:17;2.85;;;1.17;;
47519;SDS011;33252;48.122;11.538;2023-04-25T04:39:43;2.92;;;0.90;;
47519;SDS011;33252;48.122;11.538;2023-04-25T04:42:09;2.90;;;1.15;;
47519;SDS011;33252;48.122;11.538;2023-04-25T04:44:36;2.47;;;1.17;;
47519;SDS011;33252;48.122;11.538;2023-04-25T04:47:04;3.90;;;1.35;;
47519;SDS011;33252;48.122;11.538;2023-04-25T04:49:31;2.92;;;1.38;;
47519;SDS011;33252;48.122;11.538;2023-04-25T04:51:57;3.22;;;1.00;;
47519;SDS011;33252;48.122;11.538;2023-04-25T04:54:24;2.85;;;1.35;;
47519;SDS011;33252;48.122;11.538;2023-04-25T04:56:50;4.13;;;1.50;;
47519;SDS011;33252;48.122;11.538;2023-04-25T04:59:17;1.95;;;1.30;;
47519;SDS011;33252;48.122;11.538;2023-04-25T05:01:43;1.52;;;1.08;;
47519;SDS011;33252;48.122;11.538;2023-04-25T05:04:08;2.60;;;1.30;;
47519;SDS011;33252;48.122;11.538;2023-04-25T05:06:34;1.83;;;0.95;;
47519;SDS011;33252;48.122;11.538;2023-04-25T05:08:59;6.10;;;1.60;;
47519;SDS011;33252;48.122;11.538;2023-04-25T05:11:25;4.10;;;1.48;;
47519;SDS011;33252;48.122;11.538;2023-04-25T05:13:51;3.35;;;1.40;;
47519;SDS011;33252;48.122;11.538;2023-04-25T05:16:17;4.28;;;1.30;;
47519;SDS011;33252;48.122;11.538;2023-04-25T05:18:43;3.30;;;1.15;;
47519;SDS011;33252;48.122;11.538;2023-04-25T05:21:09;4.47;;;1.58;;
47519;SDS011;33252;48.122;11.538;2023-04-25T05:23:35;3.30;;;1.40;;
47519;SDS011;33252;48.122;11.538;2023-04-25T05:26:01;2.17;;;1.40;;
47519;SDS011;33252;48.122;11.538;2023-04-25T05:28:26;2.67;;;1.50;;
47519;SDS011;33252;48.122;11.538;2023-04-25T05:30:52;4.63;;;1.58;;
47519;SDS011;33252;48.122;11.538;2023-04-25T05:33:18;3.63;;;1.83;;
47519;SDS011;33252;48.122;11.538;2023-04-25T05:35:44;3.05;;;1.45;;
47519;SDS011;33252;48.122;11.538;2023-04-25T05:38:10;1.50;;;1.15;;
47519;SDS011;33252;48.122;11.538;2023-04-25T05:40:35;2.00;;;1.60;;
47519;SDS011;33252;48.122;11.538;2023-04-25T05:43:01;2.15;;;1.30;;
47519;SDS011;33252;48.122;11.538;2023-04-25T05:45:27;4.22;;;1.63;;
47519;SDS011;33252;48.122;11.538;2023-04-25T05:47:52;3.78;;;1.30;;
47519;SDS011;33252;48.122;11.538;2023-04-25T05:50:18;6.95;;;2.35;;
47519;SDS011;33252;48.122;11.538;2023-04-25T05:52:44;4.05;;;1.95;;
47519;SDS011;33252;48.122;11.538;2023-04-25T05:55:09;5.65;;;2.13;;
47519;SDS011;33252;48.122;11.538;2023-04-25T05:57:35;5.13;;;1.30;;
47519;SDS011;33252;48.122;11.538;2023-04-25T06:00:01;5.75;;;1.77;;
47519;SDS011;33252;48.122;11.538;2023-04-25T06:02:26;2.92;;;2.00;;
47519;SDS011;33252;48.122;11.538;2023-04-25T06:04:52;2.70;;;1.27;;
47519;SDS011;33252;48.122;11.538;2023-04-25T06:07:18;4.35;;;1.70;;
47519;SDS011;33252;48.122;11.538;2023-04-25T06:09:45;3.35;;;1.52;;
47519;SDS011;33252;48.122;11.538;2023-04-25T06:12:11;3.92;;;1.58;;
47519;SDS011;33252;48.122;11.538;2023-04-25T06:14:36;4.75;;;2.00;;
47519;SDS011;33252;48.122;11.538;2023-04-25T06:17:02;3.40;;;1.83;;
47519;SDS011;33252;48.122;11.538;2023-04-25T06:19:33;3.65;;;2.13;;
47519;SDS011;33252;48.122;11.538;2023-04-25T06:22:00;3.55;;;1.85;;
47519;SDS011;33252;48.122;11.538;2023-04-25T06:24:26;4.60;;;2.15;;
47519;SDS011;33252;48.122;11.538;2023-04-25T06:26:52;3.70;;;2.28;;
47519;SDS011;33252;48.122;11.538;2023-04-25T06:29:18;6.85;;;3.25;;
47519;SDS011;33252;48.122;11.538;2023-04-25T06:31:43;6.32;;;2.47;;
47519;SDS011;33252;48.122;11.538;2023-04-25T06:34:09;6.15;;;2.75;;
47519;SDS011;33252;48.122;11.538;2023-04-25T06:36:35;4.80;;;2.28;;
47519;SDS011;33252;48.122;11.538;2023-04-25T06:39:01;5.60;;;2.58;;
47519;SDS011;33252;48.122;11.538;2023-04-25T06:41:27;5.30;;;2.10;;
47519;SDS011;33252;48.122;11.538;2023-04-25T06:43:52;7.05;;;2.85;;
47519;SDS011;33252;48.122;11.538;2023-04-25T06:46:18;3.78;;;2.65;;
47519;SDS011;33252;48.122;11.538;2023-04-25T06:48:44;5.32;;;2.75;;
47519;SDS011;33252;48.122;11.538;2023-04-25T06:51:09;3.95;;;2.28;;
47519;SDS011;33252;48.122;11.538;2023-04-25T06:53:35;5.75;;;2.92;;
47519;SDS011;33252;48.122;11.538;2023-04-25T06:56:01;6.22;;;3.65;;
47519;SDS011;33252;48.122;11.538;2023-04-25T06:58:28;5.32;;;3.38;;
47519;SDS011;33252;48.122;11.538;2023-04-25T07:00:53;5.13;;;3.55;;
47519;SDS011;33252;48.122;11.538;2023-04-25T07:03:19;7.53;;;2.88;;
47519;SDS011;33252;48.122;11.538;2023-04-25T07:05:45;4.50;;;2.42;;
47519;SDS011;33252;48.122;11.538;2023-04-25T07:08:11;6.38;;;3.13;;
47519;SDS011;33252;48.122;11.538;2023-04-25T07:10:37;4.45;;;2.10;;
47519;SDS011;33252;48.122;11.538;2023-04-25T07:13:02;2.47;;;2.25;;
47519;SDS011;33252;48.122;11.538;2023-04-25T07:15:28;3.90;;;2.92;;
47519;SDS011;33252;48.122;11.538;2023-04-25T07:17:54;2.90;;;2.40;;
47519;SDS011;33252;48.122;11.538;2023-04-25T07:20:19;5.40;;;3.17;;
47519;SDS011;33252;48.122;11.538;2023-04-25T07:22:45;4.72;;;2.55;;
47519;SDS011;33252;48.122;11.538;2023-04-25T07:25:11;4.55;;;2.88;;
47519;SDS011;33252;48.122;11.538;2023-04-25T07:27:37;5.55;;;2.65;;
47519;SDS011;33252;48.122;11.538;2023-04-25T07:30:03;4.97;;;2.65;;
47519;SDS011;33252;48.122;11.538;2023-04-25T07:32:29;4.95;;;2.75;;
47519;SDS011;33252;48.122;11.538;2023-04-25T07:34:55;5.53;;;2.92;;
47519;SDS011;33252;48.122;11.538;2023-04-25T07:37:21;3.80;;;2.45;;
47519;SDS011;33252;48.122;11.538;2023-04-25T07:39:46;4.65;;;3.00;;
47519;SDS011;33252;48.122;11.538;2023-04-25T07:42:12;5.57;;;2.95;;
47519;SDS011;33252;48.122;11.538;2023-04-25T07:44:38;4.63;;;2.30;;
47519;SDS011;33252;48.122;11.538;2023-04-25T07:47:05;5.60;;;2.20;;
47519;SDS011;33252;48.122;11.538;2023-04-25T07:49:35;4.70;;;2.95;;
47519;SDS011;33252;48.122;11.538;2023-04-25T07:52:01;7.05;;;3.47;;
47519;SDS011;33252;48.122;11.538;2023-04-25T07:54:28;7.13;;;2.85;;
47519;SDS011;33252;48.122;11.538;2023-04-25T07:56:54;4.70;;;2.78;;
47519;SDS011;33252;48.122;11.538;2023-04-25T07:59:19;6.63;;;3.15;;
47519;SDS011;33252;48.122;11.538;2023-04-25T08:01:45;7.95;;;3.03;;
47519;SDS011;33252;48.122;11.538;2023-04-25T08:04:11;4.63;;;2.72;;
47519;SDS011;33252;48.122;11.538;2023-04-25T08:06:36;6.05;;;3.22;;
47519;SDS011;33252;48.122;11.538;2023-04-25T08:09:02;3.58;;;2.75;;
47519;SDS011;33252;48.122;11.538;2023-04-25T08:11:29;8.35;;;3.70;;
47519;SDS011;33252;48.122;11.538;2023-04-25T08:13:54;5.22;;;2.47;;
47519;SDS011;33252;48.122;11.538;2023-04-25T08:16:20;3.65;;;2.38;;
47519;SDS011;33252;48.122;11.538;2023-04-25T08:18:46;7.22;;;2.55;;
47519;SDS011;33252;48.122;11.538;2023-04-25T08:21:12;4.35;;;2.28;;
47519;SDS011;33252;48.122;11.538;2023-04-25T08:23:38;4.90;;;2.67;;
47519;SDS011;33252;48.122;11.538;2023-04-25T08:26:04;6.13;;;2.22;;
47519;SDS011;33252;48.122;11.538;2023-04-25T08:28:30;5.15;;;2.58;;
47519;SDS011;33252;48.122;11.538;2023-04-25T08:30:56;2.70;;;2.05;;
47519;SDS011;33252;48.122;11.538;2023-04-25T08:33:22;4.32;;;2.28;;
47519;SDS011;33252;48.122;11.538;2023-04-25T08:35:48;2.58;;;2.08;;
47519;SDS011;33252;48.122;11.538;2023-04-25T08:38:14;6.07;;;2.45;;
47519;SDS011;33252;48.122;11.538;2023-04-25T08:40:40;3.40;;;2.22;;
47519;SDS011;33252;48.122;11.538;2023-04-25T08:43:06;3.38;;;2.30;;
47519;SDS011;33252;48.122;11.538;2023-04-25T08:45:39;2.35;;;1.65;;
47519;SDS011;33252;48.122;11.538;2023-04-25T08:48:10;3.30;;;2.15;;
47519;SDS011;33252;48.122;11.538;2023-04-25T08:50:39;4.85;;;2.03;;
47519;SDS011;33252;48.122;11.538;2023-04-25T08:53:08;4.95;;;1.85;;
47519;SDS011;33252;48.122;11.538;2023-04-25T08:55:36;2.65;;;1.40;;
47519;SDS011;33252;48.122;11.538;2023-04-25T09:00:35;2.05;;;1.70;;
47519;SDS011;33252;48.122;11.538;2023-04-25T09:03:01;2.55;;;1.25;;
47519;SDS011;33252;48.122;11.538;2023-04-25T09:05:28;2.60;;;1.58;;
47519;SDS011;33252;48.122;11.538;2023-04-25T09:07:54;3.42;;;1.63;;
47519;SDS011;33252;48.122;11.538;2023-04-25T09:10:21;4.45;;;1.13;;
47519;SDS011;33252;48.122;11.538;2023-04-25T09:13:03;1.67;;;0.82;;
47519;SDS011;33252;48.122;11.538;2023-04-25T09:15:29;3.45;;;1.50;;
47519;SDS011;33252;48.122;11.538;2023-04-25T09:17:56;3.47;;;1.63;;
47519;SDS011;33252;48.122;11.538;2023-04-25T09:20:22;2.42;;;1.05;;
47519;SDS011;33252;48.122;11.538;2023-04-25T09:22:49;3.10;;;1.30;;
47519;SDS011;33252;48.122;11.538;2023-04-25T09:25:26;2.83;;;1.10;;
47519;SDS011;33252;48.122;11.538;2023-04-25T09:27:52;2.17;;;0.90;;
47519;SDS011;33252;48.122;11.538;2023-04-25T09:30:26;2.42;;;1.42;;
47519;SDS011;33252;48.122;11.538;2023-04-25T09:33:03;1.88;;;1.00;;
47519;SDS011;33252;48.122;11.538;2023-04-25T09:35:43;2.22;;;1.30;;
47519;SDS011;33252;48.122;11.538;2023-04-25T09:38:10;2.10;;;1.15;;
47519;SDS011;33252;48.122;11.538;2023-04-25T09:45:45;1.52;;;1.00;;
47519;SDS011;33252;48.122;11.538;2023-04-25T09:48:16;1.60;;;0.60;;
47519;SDS011;33252;48.122;11.538;2023-04-25T09:51:04;3.00;;;0.98;;
47519;SDS011;33252;48.122;11.538;2023-04-25T09:53:30;1.70;;;0.90;;
47519;SDS011;33252;48.122;11.538;2023-04-25T09:55:58;1.52;;;1.00;;
47519;SDS011;33252;48.122;11.538;2023-04-25T09:58:25;2.03;;;0.93;;
47519;SDS011;33252;48.122;11.538;2023-04-25T10:00:55;2.20;;;1.02;;
47519;SDS011;33252;48.122;11.538;2023-04-25T10:03:25;3.75;;;0.93;;
47519;SDS011;33252;48.122;11.538;2023-04-25T10:05:51;3.88;;;1.10;;
47519;SDS011;33252;48.122;11.538;2023-04-25T10:08:18;3.13;;;1.00;;
47519;SDS011;33252;48.122;11.538;2023-04-25T10:10:46;3.75;;;1.33;;
47519;SDS011;33252;48.122;11.538;2023-04-25T10:13:13;4.20;;;1.48;;
47519;SDS011;33252;48.122;11.538;2023-04-25T10:15:40;3.13;;;1.35;;
47519;SDS011;33252;48.122;11.538;2023-04-25T10:18:07;1.80;;;1.00;;
47519;SDS011;33252;48.122;11.538;2023-04-25T10:20:33;3.97;;;1.13;;
47519;SDS011;33252;48.122;11.538;2023-04-25T10:23:03;3.03;;;1.23;;
47519;SDS011;33252;48.122;11.538;2023-04-25T10:25:38;2.85;;;1.20;;
47519;SDS011;33252;48.122;11.538;2023-04-25T10:28:05;3.33;;;1.30;;
47519;SDS011;33252;48.122;11.538;2023-04-25T10:30:31;3.00;;;1.08;;
47519;SDS011;33252;48.122;11.538;2023-04-25T10:32:56;2.55;;;1.10;;
47519;SDS011;33252;48.122;11.538;2023-04-25T10:35:28;1.60;;;1.23;;
47519;SDS011;33252;48.122;11.538;2023-04-25T10:37:59;2.60;;;1.08;;
47519;SDS011;33252;48.122;11.538;2023-04-25T10:40:30;1.38;;;0.60;;
47519;SDS011;33252;48.122;11.538;2023-04-25T10:42:57;1.13;;;0.70;;
47519;SDS011;33252;48.122;11.538;2023-04-25T10:46:21;1.15;;;0.55;;
47519;SDS011;33252;48.122;11.538;2023-04-25T10:48:52;2.80;;;0.85;;
47519;SDS011;33252;48.122;11.538;2023-04-25T10:51:31;0.93;;;0.60;;
47519;SDS011;33252;48.122;11.538;2023-04-25T10:53:59;0.65;;;0.47;;
47519;SDS011;33252;48.122;11.538;2023-04-25T10:56:33;1.55;;;0.63;;
47519;SDS011;33252;48.122;11.538;2023-04-25T10:59:15;1.58;;;0.70;;
47519;SDS011;33252;48.122;11.538;2023-04-25T11:06:55;2.80;;;1.50;;
47519;SDS011;33252;48.122;11.538;2023-04-25T11:09:45;2.88;;;0.85;;
47519;SDS011;33252;48.122;11.538;2023-04-25T11:12:11;1.33;;;0.93;;
47519;SDS011;33252;48.122;11.538;2023-04-25T11:14:38;2.03;;;1.08;;
47519;SDS011;33252;48.122;11.538;2023-04-25T11:17:04;2.03;;;1.33;;
47519;SDS011;33252;48.122;11.538;2023-04-25T11:19:30;2.00;;;0.60;;
47519;SDS011;33252;48.122;11.538;2023-04-25T11:21:56;4.22;;;0.80;;
47519;SDS011;33252;48.122;11.538;2023-04-25T11:24:29;2.55;;;0.85;;
47519;SDS011;33252;48.122;11.538;2023-04-25T11:29:27;2.78;;;0.57;;
47519;SDS011;33252;48.122;11.538;2023-04-25T11:31:54;0.98;;;0.40;;
47519;SDS011;33252;48.122;11.538;2023-04-25T11:34:24;1.75;;;0.60;;
47519;SDS011;33252;48.122;11.538;2023-04-25T11:36:50;1.58;;;0.60;;
47519;SDS011;33252;48.122;11.538;2023-04-25T11:39:18;2.58;;;0.70;;
47519;SDS011;33252;48.122;11.538;2023-04-25T11:41:44;2.38;;;1.27;;
47519;SDS011;33252;48.122;11.538;2023-04-25T11:44:10;2.00;;;1.10;;
47519;SDS011;33252;48.122;11.538;2023-04-25T11:46:36;1.52;;;0.80;;
47519;SDS011;33252;48.122;11.538;2023-04-25T11:49:02;2.45;;;0.93;;
47519;SDS011;33252;48.122;11.538;2023-04-25T11:51:29;2.38;;;1.00;;
47519;SDS011;33252;48.122;11.538;2023-04-25T11:53:56;2.22;;;1.25;;
47519;SDS011;33252;48.122;11.538;2023-04-25T11:56:22;4.25;;;1.23;;
47519;SDS011;33252;48.122;11.538;2023-04-25T11:58:57;1.05;;;0.70;;
47519;SDS011;33252;48.122;11.538;2023-04-25T12:01:27;2.78;;;0.98;;
47519;SDS011;33252;48.122;11.538;2023-04-25T12:03:57;1.98;;;0.82;;
47519;SDS011;33252;48.122;11.538;2023-04-25T12:06:27;1.70;;;0.50;;
47519;SDS011;33252;48.122;11.538;2023-04-25T12:09:02;0.90;;;0.47;;
47519;SDS011;33252;48.122;11.538;2023-04-25T12:11:30;1.50;;;0.70;;
47519;SDS011;33252;48.122;11.538;2023-04-25T12:14:02;0.93;;;0.50;;
47519;SDS011;33252;48.122;11.538;2023-04-25T12:16:29;1.73;;;0.60;;
47519;SDS011;33252;48.122;11.538;2023-04-25T12:19:05;1.17;;;0.50;;
47519;SDS011;33252;48.122;11.538;2023-04-25T12:21:31;1.45;;;0.60;;
47519;SDS011;33252;48.122;11.538;2023-04-25T12:24:08;1.33;;;0.50;;
47519;SDS011;33252;48.122;11.538;2023-04-25T12:26:49;1.73;;;0.75;;
47519;SDS011;33252;48.122;11.538;2023-04-25T12:29:20;0.95;;;0.68;;
47519;SDS011;33252;48.122;11.538;2023-04-25T12:31:47;1.17;;;0.60;;
47519;SDS011;33252;48.122;11.538;2023-04-25T12:34:13;1.45;;;0.60;;
47519;SDS011;33252;48.122;11.538;2023-04-25T12:36:39;0.52;;;0.40;;
47519;SDS011;33252;48.122;11.538;2023-04-25T12:39:05;0.70;;;0.40;;
47519;SDS011;33252;48.122;11.538;2023-04-25T12:41:31;1.00;;;0.40;;
47519;SDS011;33252;48.122;11.538;2023-04-25T12:43:57;1.25;;;0.73;;
47519;SDS011;33252;48.122;11.538;2023-04-25T12:46:23;2.15;;;0.50;;
47519;SDS011;33252;48.122;11.538;2023-04-25T12:48:49;3.50;;;0.47;;
47519;SDS011;33252;48.122;11.538;2023-04-25T12:51:15;1.00;;;0.57;;
47519;SDS011;33252;48.122;11.538;2023-04-25T12:53:41;1.27;;;0.70;;
47519;SDS011;33252;48.122;11.538;2023-04-25T12:56:07;1.48;;;0.65;;
47519;SDS011;33252;48.122;11.538;2023-04-25T12:58:33;2.50;;;0.60;;
47519;SDS011;33252;48.122;11.538;2023-04-25T13:00:59;1.38;;;1.00;;
47519;SDS011;33252;48.122;11.538;2023-04-25T13:03:24;1.40;;;0.40;;
47519;SDS011;33252;48.122;11.538;2023-04-25T13:05:50;1.80;;;0.38;;
47519;SDS011;33252;48.122;11.538;2023-04-25T13:08:18;1.17;;;0.57;;
47519;SDS011;33252;48.122;11.538;2023-04-25T13:10:44;1.00;;;0.30;;
47519;SDS011;33252;48.122;11.538;2023-04-25T13:13:10;3.03;;;0.63;;
47519;SDS011;33252;48.122;11.538;2023-04-25T13:15:35;4.97;;;0.30;;
47519;SDS011;33252;48.122;11.538;2023-04-25T13:18:02;0.45;;;0.20;;
47519;SDS011;33252;48.122;11.538;2023-04-25T13:20:29;0.40;;;0.40;;
47519;SDS011;33252;48.122;11.538;2023-04-25T13:22:55;2.35;;;0.50;;
47519;SDS011;33252;48.122;11.538;2023-04-25T13:25:21;1.02;;;0.50;;
47519;SDS011;33252;48.122;11.538;2023-04-25T13:27:47;0.75;;;0.40;;
47519;SDS011;33252;48.122;11.538;2023-04-25T13:30:12;2.05;;;0.52;;
47519;SDS011;33252;48.122;11.538;2023-04-25T13:32:39;0.70;;;0.30;;
47519;SDS011;33252;48.122;11.538;2023-04-25T13:35:05;1.20;;;0.60;;
47519;SDS011;33252;48.122;11.538;2023-04-25T13:37:33;1.40;;;0.70;;
47519;SDS011;33252;48.122;11.538;2023-04-25T13:40:03;0.80;;;0.40;;
47519;SDS011;33252;48.122;11.538;2023-04-25T13:42:30;1.02;;;0.50;;
47519;SDS011;33252;48.122;11.538;2023-04-25T13:44:56;1.00;;;0.63;;
47519;SDS011;33252;48.122;11.538;2023-04-25T13:47:22;0.63;;;0.40;;
47519;SDS011;33252;48.122;11.538;2023-04-25T13:49:49;1.17;;;0.55;;
47519;SDS011;33252;48.122;11.538;2023-04-25T13:52:15;1.40;;;0.68;;
47519;SDS011;33252;48.122;11.538;2023-04-25T13:54:41;1.27;;;0.40;;
47519;SDS011;33252;48.122;11.538;2023-04-25T13:57:06;0.70;;;0.38;;
47519;SDS011;33252;48.122;11.538;2023-04-25T13:59:32;1.27;;;0.40;;
47519;SDS011;33252;48.122;11.538;2023-04-25T14:01:58;1.58;;;0.70;;
47519;SDS011;33252;48.122;11.538;2023-04-25T14:04:24;1.15;;;0.50;;
47519;SDS011;33252;48.122;11.538;2023-04-25T14:06:50;1.27;;;0.50;;
47519;SDS011;33252;48.122;11.538;2023-04-25T14:09:16;0.95;;;0.50;;
47519;SDS011;33252;48.122;11.538;2023-04-25T14:11:42;1.00;;;0.47;;
47519;SDS011;33252;48.122;11.538;2023-04-25T14:14:07;1.95;;;0.50;;
47519;SDS011;33252;48.122;11.538;2023-04-25T14:16:34;1.20;;;0.50;;
47519;SDS011;33252;48.122;11.538;2023-04-25T14:19:00;1.13;;;0.57;;
47519;SDS011;33252;48.122;11.538;2023-04-25T14:21:26;3.05;;;0.50;;
47519;SDS011;33252;48.122;11.538;2023-04-25T14:23:53;1.65;;;0.40;;
47519;SDS011;33252;48.122;11.538;2023-04-25T14:26:19;0.60;;;0.30;;
47519;SDS011;33252;48.122;11.538;2023-04-25T14:28:44;0.60;;;0.30;;
47519;SDS011;33252;48.122;11.538;2023-04-25T14:31:10;1.92;;;0.40;;
47519;SDS011;33252;48.122;11.538;2023-04-25T14:33:36;0.50;;;0.30;;
47519;SDS011;33252;48.122;11.538;2023-04-25T14:36:04;0.68;;;0.28;;
47519;SDS011;33252;48.122;11.538;2023-04-25T14:38:30;1.55;;;0.50;;
47519;SDS011;33252;48.122;11.538;2023-04-25T14:40:56;0.77;;;0.43;;
47519;SDS011;33252;48.122;11.538;2023-04-25T14:43:22;0.90;;;0.57;;
47519;SDS011;33252;48.122;11.538;2023-04-25T14:45:47;1.17;;;0.40;;
47519;SDS011;33252;48.122;11.538;2023-04-25T14:48:13;1.98;;;0.50;;